Time;durP1;ratioP1;P1;durP2;ratioP2;P2;SDS_P1;SDS_P2;PMS_P1;PMS_P2;Temp;Humidity;BMP_temperature;BMP_pressure;BME280_temperature;BME280_humidity;BME280_pressure;Samples;Min_cycle;Max_cycle;Signal;HPM_P1;HPM_P2
2021/01/20 00:01:24;;;;;;;47.75;30.15;;;-1.10;84.60;;;;;;5037944;28;20029;-69
2021/01/20 00:03:50;;;;;;;46.80;30.98;;;-1.10;84.60;;;;;;5037680;28;20321;-69
2021/01/20 00:06:16;;;;;;;48.70;31.77;;;-1.20;84.90;;;;;;5036493;28;20100;-69
2021/01/20 00:08:41;;;;;;;48.03;31.73;;;-1.30;84.90;;;;;;5036485;28;20029;-69
2021/01/20 00:11:07;;;;;;;46.83;32.50;;;-1.30;85.20;;;;;;5037495;28;20025;-69
2021/01/20 00:13:33;;;;;;;49.08;32.05;;;-1.30;85.50;;;;;;5037468;28;20473;-69
2021/01/20 00:15:59;;;;;;;60.13;32.97;;;-1.30;85.70;;;;;;5037510;28;20021;-69
2021/01/20 00:18:24;;;;;;;49.45;32.72;;;-1.30;85.80;;;;;;5037671;28;20040;-69
2021/01/20 00:20:50;;;;;;;55.50;32.50;;;-1.40;86.10;;;;;;5037402;28;20026;-69
2021/01/20 00:23:16;;;;;;;47.15;32.72;;;-1.40;86.10;;;;;;5037278;28;20025;-69
2021/01/20 00:25:41;;;;;;;52.47;33.50;;;-1.40;86.10;;;;;;5037674;28;20100;-69
2021/01/20 00:28:07;;;;;;;52.35;30.73;;;-1.40;86.40;;;;;;5037080;28;20361;-69
2021/01/20 00:30:33;;;;;;;29.33;20.67;;;-1.50;86.40;;;;;;5037173;28;20438;-69
2021/01/20 00:32:59;;;;;;;35.00;20.92;;;-1.50;84.60;;;;;;5037413;28;20038;-69
2021/01/20 00:35:25;;;;;;;32.33;20.25;;;-1.40;82.40;;;;;;5037034;28;20038;-69
2021/01/20 00:37:51;;;;;;;31.63;20.48;;;-1.30;81.30;;;;;;5037101;28;20029;-69
2021/01/20 00:40:18;;;;;;;30.58;20.50;;;-1.20;80.60;;;;;;5037219;28;20032;-69
2021/01/20 00:42:44;;;;;;;30.50;20.85;;;-1.10;80.50;;;;;;5037024;28;20025;-69
2021/01/20 00:45:11;;;;;;;34.22;21.33;;;-1.00;79.90;;;;;;5036868;28;20033;-69
2021/01/20 00:47:37;;;;;;;29.38;19.10;;;-1.10;79.60;;;;;;5037159;28;20029;-69
2021/01/20 00:50:04;;;;;;;28.75;19.27;;;-1.10;79.30;;;;;;5036882;28;20318;-69
2021/01/20 00:52:30;;;;;;;31.55;19.08;;;-1.10;79.00;;;;;;5036811;28;20112;-69
2021/01/20 00:54:57;;;;;;;33.97;21.13;;;-1.10;78.80;;;;;;5036857;28;20061;-69
2021/01/20 00:57:23;;;;;;;30.08;20.80;;;-1.10;79.20;;;;;;5036839;28;20495;-69
2021/01/20 00:59:49;;;;;;;28.35;20.75;;;-1.10;79.50;;;;;;5036826;28;20060;-69
2021/01/20 01:02:15;;;;;;;31.10;21.70;;;-1.10;79.70;;;;;;5035690;28;20049;-69
2021/01/20 01:04:42;;;;;;;35.10;19.98;;;-1.10;79.80;;;;;;5036707;28;20352;-68
2021/01/20 01:07:07;;;;;;;34.88;21.30;;;-1.20;79.50;;;;;;5036731;28;20033;-67
2021/01/20 01:09:36;;;;;;;37.05;20.77;;;-1.30;79.80;;;;;;5036683;28;20021;-67
2021/01/20 01:12:02;;;;;;;29.17;19.77;;;-1.30;79.90;;;;;;5036982;28;20025;-67
2021/01/20 01:14:29;;;;;;;30.30;20.05;;;-1.40;79.90;;;;;;5036732;28;20021;-67
2021/01/20 01:16:55;;;;;;;31.02;20.38;;;-1.40;79.90;;;;;;5036686;28;20036;-67
2021/01/20 01:19:21;;;;;;;34.55;21.10;;;-1.50;80.30;;;;;;5036517;28;20104;-67
2021/01/20 01:21:46;;;;;;;28.58;19.88;;;-1.60;80.60;;;;;;5036604;28;20075;-67
2021/01/20 01:24:12;;;;;;;32.38;22.02;;;-1.60;80.40;;;;;;5036598;28;20026;-67
2021/01/20 01:26:38;;;;;;;31.73;22.42;;;-1.60;80.90;;;;;;5036533;28;20116;-67
2021/01/20 01:29:04;;;;;;;29.92;20.02;;;-1.50;81.30;;;;;;5036455;28;20388;-67
2021/01/20 01:31:30;;;;;;;34.50;21.75;;;-1.50;80.30;;;;;;5036412;28;20108;-69
2021/01/20 01:33:56;;;;;;;28.95;18.70;;;-1.50;80.70;;;;;;5036381;28;20024;-69
2021/01/20 01:36:21;;;;;;;29.67;20.45;;;-1.60;80.60;;;;;;5036375;28;20022;-69
2021/01/20 01:38:47;;;;;;;26.67;17.42;;;-1.50;81.00;;;;;;5035239;28;20477;-69
2021/01/20 01:41:13;;;;;;;26.38;16.45;;;-1.40;80.00;;;;;;5036363;28;20034;-69
2021/01/20 01:43:38;;;;;;;26.67;18.05;;;-1.40;79.80;;;;;;5036297;28;20033;-69
2021/01/20 01:46:04;;;;;;;26.48;18.45;;;-1.40;79.40;;;;;;5035249;28;20026;-69
2021/01/20 01:48:30;;;;;;;32.67;20.77;;;-1.50;79.50;;;;;;5036533;28;20083;-69
2021/01/20 01:50:56;;;;;;;30.70;21.00;;;-1.50;80.20;;;;;;5036282;28;20053;-69
2021/01/20 01:53:22;;;;;;;32.15;21.45;;;-1.60;80.70;;;;;;5036421;28;20068;-69
2021/01/20 01:55:48;;;;;;;29.98;19.75;;;-1.60;80.50;;;;;;5036514;28;20037;-69
2021/01/20 01:58:14;;;;;;;29.65;20.08;;;-1.60;80.90;;;;;;5036479;28;20037;-69
2021/01/20 02:00:41;;;;;;;36.53;22.10;;;-1.70;81.10;;;;;;5036118;28;20061;-69
2021/01/20 02:03:07;;;;;;;34.40;22.67;;;-1.70;81.60;;;;;;5036055;28;20075;-69
2021/01/20 02:05:32;;;;;;;33.95;22.63;;;-1.70;82.20;;;;;;5036233;28;20025;-69
2021/01/20 02:07:58;;;;;;;36.95;24.08;;;-1.70;82.30;;;;;;5036144;28;20025;-69
2021/01/20 02:10:24;;;;;;;37.10;24.63;;;-1.70;82.30;;;;;;5036107;28;20064;-69
2021/01/20 02:13:08;;;;;;;41.20;24.85;;;-1.70;82.30;;;;;;5036135;28;20033;-69
2021/01/20 02:15:34;;;;;;;38.40;24.23;;;-1.80;82.80;;;;;;5039771;28;20033;-69
2021/01/20 02:18:06;;;;;;;37.38;23.10;;;-1.80;83.30;;;;;;5038639;28;20034;-69
2021/01/20 02:20:40;;;;;;;30.42;20.48;;;-1.70;82.70;;;;;;5039610;28;20029;-67
2021/01/20 02:23:11;;;;;;;28.42;19.63;;;-1.70;82.40;;;;;;5039876;28;20112;-67
2021/01/20 02:26:14;;;;;;;24.98;17.60;;;-1.70;81.40;;;;;;5039866;28;20034;-67
2021/01/20 02:29:16;;;;;;;29.40;17.92;;;-1.70;80.30;;;;;;5039485;28;20045;-69
2021/01/20 02:31:44;;;;;;;27.95;18.02;;;-1.80;80.30;;;;;;5039596;28;20026;-69
2021/01/20 02:34:14;;;;;;;25.70;17.67;;;-1.80;80.60;;;;;;5039579;28;20057;-69
2021/01/20 02:36:41;;;;;;;27.95;18.95;;;-1.80;80.60;;;;;;5039338;28;20025;-69
2021/01/20 02:39:08;;;;;;;25.45;17.63;;;-1.80;80.60;;;;;;5039229;28;20033;-69
2021/01/20 02:41:33;;;;;;;29.10;18.63;;;-1.80;80.60;;;;;;5039467;28;20022;-69
2021/01/20 02:44:04;;;;;;;28.25;17.92;;;-1.80;80.70;;;;;;5039433;28;20021;-69
2021/01/20 02:46:31;;;;;;;26.25;18.95;;;-1.80;80.90;;;;;;5039398;28;20329;-69
2021/01/20 02:48:59;;;;;;;34.92;21.20;;;-1.70;80.90;;;;;;5039076;28;20345;-69
2021/01/20 02:51:55;;;;;;;33.70;22.85;;;-1.70;81.20;;;;;;5039274;28;20021;-69
2021/01/20 02:54:23;;;;;;;35.38;22.65;;;-1.70;81.50;;;;;;5038938;28;20405;-69
2021/01/20 02:56:51;;;;;;;39.85;24.25;;;-1.60;81.80;;;;;;5038915;28;20038;-69
2021/01/20 02:59:20;;;;;;;34.97;22.88;;;-1.60;81.90;;;;;;5039085;28;20091;-67
2021/01/20 03:01:52;;;;;;;33.60;22.95;;;-1.70;81.70;;;;;;5038807;28;20413;-67
2021/01/20 03:04:19;;;;;;;32.55;21.33;;;-1.70;81.60;;;;;;5038891;28;20033;-67
2021/01/20 03:06:50;;;;;;;30.63;20.33;;;-1.70;81.70;;;;;;5037703;28;20056;-67
2021/01/20 03:09:16;;;;;;;32.90;20.75;;;-1.70;82.00;;;;;;5038998;28;20033;-69
2021/01/20 03:11:49;;;;;;;33.08;20.67;;;-1.60;81.80;;;;;;5038718;28;20045;-69
2021/01/20 03:14:18;;;;;;;30.25;19.80;;;-1.60;81.50;;;;;;5038851;28;20041;-69
2021/01/20 03:16:43;;;;;;;26.05;18.55;;;-1.60;81.00;;;;;;5038598;28;20410;-69
2021/01/20 03:19:09;;;;;;;28.27;18.73;;;-1.60;80.40;;;;;;5038448;28;20025;-69
2021/01/20 03:21:35;;;;;;;28.85;16.15;;;-1.60;80.40;;;;;;5037443;28;20179;-69
2021/01/20 03:24:01;;;;;;;25.90;16.52;;;-1.60;80.00;;;;;;5038424;28;20032;-69
2021/01/20 03:26:26;;;;;;;25.77;16.67;;;-1.60;79.50;;;;;;5037575;28;20021;-68
2021/01/20 03:28:52;;;;;;;22.70;16.05;;;-1.70;79.80;;;;;;5038691;28;20068;-67
2021/01/20 03:31:18;;;;;;;26.40;15.77;;;-1.60;80.20;;;;;;5038304;28;20068;-69
2021/01/20 03:33:43;;;;;;;24.77;16.70;;;-1.70;80.80;;;;;;5038353;28;20030;-69
2021/01/20 03:36:09;;;;;;;33.35;18.98;;;-1.70;81.00;;;;;;5038136;28;20113;-69
2021/01/20 03:38:35;;;;;;;36.97;22.67;;;-1.80;81.30;;;;;;5038233;28;20092;-69
2021/01/20 03:41:01;;;;;;;32.70;21.73;;;-1.80;81.60;;;;;;5038144;28;20148;-69
2021/01/20 03:43:26;;;;;;;30.50;21.05;;;-1.60;81.50;;;;;;5038076;28;20037;-69
2021/01/20 03:45:52;;;;;;;30.80;20.58;;;-1.50;81.00;;;;;;5038250;28;20022;-69
2021/01/20 03:48:18;;;;;;;30.25;20.45;;;-1.50;79.80;;;;;;5038276;28;20429;-69
2021/01/20 03:50:43;;;;;;;30.38;20.42;;;-1.50;79.80;;;;;;5038171;28;20033;-69
2021/01/20 03:53:09;;;;;;;31.45;19.73;;;-1.50;79.90;;;;;;5037904;28;20349;-69
2021/01/20 03:55:34;;;;;;;35.08;20.95;;;-1.50;79.70;;;;;;5038122;28;20036;-69
2021/01/20 03:58:00;;;;;;;34.67;21.88;;;-1.60;80.10;;;;;;5037841;28;20338;-69
2021/01/20 04:00:26;;;;;;;36.97;22.70;;;-1.70;80.10;;;;;;5037687;28;20029;-69
2021/01/20 04:02:51;;;;;;;31.95;21.60;;;-1.80;80.80;;;;;;5037963;28;20104;-69
2021/01/20 04:05:17;;;;;;;34.28;22.17;;;-1.80;81.10;;;;;;5037901;28;20018;-69
2021/01/20 04:07:43;;;;;;;32.10;21.92;;;-1.80;81.70;;;;;;5038179;28;20029;-69
2021/01/20 04:10:09;;;;;;;33.88;21.38;;;-1.80;81.90;;;;;;5037663;28;20104;-69
2021/01/20 04:12:38;;;;;;;32.45;20.92;;;-1.90;81.90;;;;;;5036483;28;20330;-69
2021/01/20 04:15:08;;;;;;;29.95;20.30;;;-1.90;81.80;;;;;;5037684;28;20416;-69
2021/01/20 04:17:35;;;;;;;31.60;19.75;;;-1.90;81.80;;;;;;5037455;28;20029;-69
2021/01/20 04:20:01;;;;;;;30.65;18.80;;;-1.90;81.80;;;;;;5036273;28;20410;-69
2021/01/20 04:22:27;;;;;;;32.53;21.58;;;-1.90;81.80;;;;;;5037274;28;20030;-69
2021/01/20 04:24:54;;;;;;;32.80;19.60;;;-1.90;82.10;;;;;;5037468;28;20040;-69
2021/01/20 04:27:19;;;;;;;29.92;17.77;;;-1.90;82.00;;;;;;5037132;28;20049;-69
2021/01/20 04:29:45;;;;;;;29.98;18.15;;;-1.90;81.60;;;;;;5037181;28;20029;-68
2021/01/20 04:32:10;;;;;;;35.42;19.33;;;-2.00;81.50;;;;;;5037194;28;20028;-69
2021/01/20 04:34:37;;;;;;;30.48;18.63;;;-2.00;81.90;;;;;;5037009;28;20025;-69
2021/01/20 04:37:03;;;;;;;21.58;15.65;;;-2.00;81.60;;;;;;5036984;28;20083;-69
2021/01/20 04:39:29;;;;;;;29.45;17.00;;;-2.00;81.50;;;;;;5036990;28;20026;-69
2021/01/20 04:41:55;;;;;;;27.60;18.30;;;-2.00;81.10;;;;;;5035969;28;20059;-69
2021/01/20 04:44:20;;;;;;;31.73;18.83;;;-2.00;81.60;;;;;;5036984;28;20022;-69
2021/01/20 04:46:47;;;;;;;30.02;20.45;;;-2.00;82.00;;;;;;5037219;28;20029;-69
2021/01/20 04:49:17;;;;;;;28.98;19.73;;;-2.00;81.70;;;;;;5036919;28;20079;-69
2021/01/20 04:51:44;;;;;;;31.70;21.00;;;-2.00;82.00;;;;;;5036938;28;20032;-69
2021/01/20 04:54:12;;;;;;;36.28;22.08;;;-2.00;82.50;;;;;;5036749;28;20059;-69
2021/01/20 04:56:39;;;;;;;37.95;24.40;;;-2.00;83.00;;;;;;5037046;28;20036;-69
2021/01/20 04:59:08;;;;;;;39.17;24.25;;;-2.00;83.70;;;;;;5035642;28;20029;-69
2021/01/20 05:01:34;;;;;;;34.03;21.95;;;-1.90;84.00;;;;;;5036802;28;20021;-69
2021/01/20 05:04:01;;;;;;;35.35;22.52;;;-2.00;83.90;;;;;;5036955;28;20025;-69
2021/01/20 05:06:28;;;;;;;35.72;21.58;;;-2.00;84.00;;;;;;5036689;28;20398;-69
2021/01/20 05:08:54;;;;;;;34.85;21.42;;;-2.10;84.20;;;;;;5036698;28;20022;-67
2021/01/20 05:11:34;;;;;;;37.90;20.90;;;-2.10;84.40;;;;;;5036952;28;20036;-67
2021/01/20 05:14:14;;;;;;;33.65;21.17;;;-2.20;84.80;;;;;;5036927;28;20075;-67
2021/01/20 05:16:42;;;;;;;29.45;20.08;;;-2.20;84.50;;;;;;5035494;28;20068;-69
2021/01/20 05:19:08;;;;;;;30.10;20.27;;;-2.20;84.30;;;;;;5036551;28;20036;-69
2021/01/20 05:21:34;;;;;;;30.70;20.13;;;-2.20;84.50;;;;;;5036788;28;20028;-69
2021/01/20 05:24:21;;;;;;;37.42;22.23;;;-2.10;84.50;;;;;;5036502;28;20418;-69
2021/01/20 05:26:47;;;;;;;;;;;-2.10;84.60;;;;;;5036548;28;20057;-69
2021/01/20 05:29:14;;;;;;;36.15;21.33;;;-2.10;84.60;;;;;;5036512;28;19905;-69
2021/01/20 05:31:40;;;;;;;36.45;21.48;;;-2.00;83.80;;;;;;5035400;28;20018;-69
2021/01/20 05:34:21;;;;;;;35.60;21.55;;;-1.90;83.60;;;;;;5036354;28;20030;-67
2021/01/20 05:37:10;;;;;;;35.15;20.35;;;-1.90;83.50;;;;;;5036524;28;20045;-67
2021/01/20 05:39:37;;;;;;;34.28;21.33;;;-1.90;83.60;;;;;;5036459;28;20021;-67
2021/01/20 05:42:08;;;;;;;34.63;20.95;;;-2.00;83.20;;;;;;5036406;28;20014;-67
2021/01/20 05:44:35;;;;;;;30.05;19.95;;;-2.00;83.90;;;;;;5036350;28;20129;-67
2021/01/20 05:47:13;;;;;;;31.17;20.30;;;-1.90;84.20;;;;;;5036716;28;20148;-67
2021/01/20 05:49:40;;;;;;;32.80;20.55;;;-1.90;83.80;;;;;;5038919;28;20029;-67
2021/01/20 05:52:16;;;;;;;43.75;29.67;;;-1.90;83.20;;;;;;5040148;28;20298;-67
2021/01/20 05:54:43;;;;;;;;;;;-1.90;83.10;;;;;;5040615;28;20080;-69
2021/01/20 05:57:19;;;;;;;;;;;-1.80;82.10;;;;;;5040764;28;19909;-69
2021/01/20 05:59:50;;;;;;;35.63;18.17;;;-1.80;81.50;;;;;;5038917;28;19913;-67
2021/01/20 06:02:17;;;;;;;36.80;22.65;;;-1.90;81.70;;;;;;5040083;28;20017;-67
2021/01/20 06:04:44;;;;;;;30.73;21.85;;;-2.00;82.20;;;;;;5039880;28;20056;-67
2021/01/20 06:07:11;;;;;;;27.67;17.92;;;-2.00;82.40;;;;;;5040123;28;20087;-67
2021/01/20 06:09:39;;;;;;;29.88;19.20;;;-1.90;81.60;;;;;;5038832;28;20080;-67
2021/01/20 06:12:06;;;;;;;28.35;17.13;;;-1.90;81.70;;;;;;5038809;28;20413;-67
2021/01/20 06:14:33;;;;;;;30.38;17.85;;;-1.90;80.80;;;;;;5039936;28;20025;-67
2021/01/20 06:17:14;;;;;;;27.60;17.27;;;-2.00;81.00;;;;;;5040088;28;20033;-67
2021/01/20 06:19:46;;;;;;;27.83;17.25;;;-2.00;81.00;;;;;;5039647;28;20027;-69
2021/01/20 06:22:17;;;;;;;30.02;19.98;;;-2.10;81.20;;;;;;5039761;28;20359;-67
2021/01/20 06:24:47;;;;;;;31.67;19.58;;;-2.10;82.20;;;;;;5039677;28;20099;-67
2021/01/20 06:27:58;;;;;;;29.65;19.17;;;-2.00;82.60;;;;;;5039581;28;20337;-67
2021/01/20 06:30:36;;;;;;;27.40;18.48;;;-1.80;81.70;;;;;;5048115;28;20033;-67
2021/01/20 06:33:08;;;;;;;29.05;18.35;;;-1.70;81.20;;;;;;5038422;28;20022;-67
2021/01/20 06:35:44;;;;;;;26.73;17.90;;;-1.60;80.50;;;;;;5039617;28;20088;-69
2021/01/20 06:38:28;;;;;;;26.80;16.85;;;-1.70;80.30;;;;;;5040271;28;20446;-67
2021/01/20 06:40:55;;;;;;;27.38;15.45;;;-1.70;79.70;;;;;;5039228;28;20033;-69
2021/01/20 06:43:43;;;;;;;21.95;15.55;;;-1.70;79.50;;;;;;5039244;28;20026;-67
2021/01/20 06:46:21;;;;;;;27.58;18.00;;;-1.40;78.70;;;;;;5039201;28;20053;-67
2021/01/20 06:48:53;;;;;;;22.00;14.50;;;-1.00;77.50;;;;;;5038125;28;20375;-67
2021/01/20 06:51:19;;;;;;;18.13;10.90;;;-0.70;75.60;;;;;;5037994;28;20034;-67
2021/01/20 06:54:00;;;;;;;18.05;12.82;;;-0.50;73.20;;;;;;5039136;28;20295;-67
2021/01/20 06:56:45;;;;;;;16.25;10.75;;;-0.30;72.30;;;;;;5038825;28;20038;-67
2021/01/20 06:59:16;;;;;;;13.45;8.93;;;-0.10;71.20;;;;;;5039326;28;20076;-67
2021/01/20 07:02:02;;;;;;;16.75;10.35;;;0.00;69.80;;;;;;5038912;28;20032;-67
2021/01/20 07:04:38;;;;;;;19.15;11.38;;;0.10;69.90;;;;;;5038689;28;20045;-67
2021/01/20 07:07:11;;;;;;;18.50;10.80;;;0.20;68.90;;;;;;5038803;28;20037;-67
2021/01/20 07:09:49;;;;;;;16.38;10.00;;;0.30;68.60;;;;;;5038732;28;20553;-67
2021/01/20 07:12:21;;;;;;;11.98;8.50;;;0.40;67.50;;;;;;5037653;28;20061;-67
2021/01/20 07:14:54;;;;;;;16.90;8.95;;;0.50;67.30;;;;;;5037550;28;20030;-67
2021/01/20 07:17:20;;;;;;;15.82;9.70;;;0.60;66.80;;;;;;5038963;28;20026;-67
2021/01/20 07:19:48;;;;;;;14.68;8.75;;;0.60;67.30;;;;;;5038477;28;20072;-67
2021/01/20 07:22:15;;;;;;;14.05;8.73;;;0.60;67.30;;;;;;5038518;28;20025;-67
2021/01/20 07:24:42;;;;;;;15.68;10.25;;;0.70;67.70;;;;;;5038458;28;20030;-69
2021/01/20 07:27:10;;;;;;;24.05;14.55;;;0.70;67.70;;;;;;5038469;28;20058;-68
2021/01/20 07:29:42;;;;;;;22.45;15.07;;;0.70;69.50;;;;;;5037318;28;20322;-67
2021/01/20 07:32:08;;;;;;;28.95;15.30;;;0.80;69.30;;;;;;5038289;28;20033;-67
2021/01/20 07:34:43;;;;;;;29.58;15.70;;;0.90;70.00;;;;;;5038141;28;20421;-67
2021/01/20 07:37:10;;;;;;;31.83;16.00;;;0.90;69.50;;;;;;5038379;28;20060;-67
2021/01/20 07:39:37;;;;;;;22.83;15.60;;;1.00;70.90;;;;;;5038140;28;20071;-67
2021/01/20 07:42:03;;;;;;;24.10;15.35;;;1.10;70.70;;;;;;5038147;28;20071;-67
2021/01/20 07:44:30;;;;;;;22.08;16.05;;;1.10;70.30;;;;;;5038071;28;20413;-67
2021/01/20 07:46:59;;;;;;;25.35;15.07;;;1.20;70.00;;;;;;5038098;28;20029;-67
2021/01/20 07:49:25;;;;;;;25.10;16.58;;;1.20;70.20;;;;;;5037924;28;20064;-67
2021/01/20 07:52:10;;;;;;;23.45;16.00;;;1.30;70.50;;;;;;5038246;28;20037;-67
2021/01/20 07:54:40;;;;;;;22.20;15.25;;;1.30;69.90;;;;;;5038083;28;20029;-67
2021/01/20 07:57:07;;;;;;;19.05;13.98;;;1.40;71.60;;;;;;5038041;28;20385;-67
2021/01/20 07:59:33;;;;;;;20.15;14.88;;;1.60;68.00;;;;;;5037995;28;20112;-67
2021/01/20 08:02:09;;;;;;;22.75;14.35;;;1.60;68.00;;;;;;5038370;28;20083;-67
2021/01/20 08:04:36;;;;;;;;;;;1.60;68.00;;;;;;5038050;28;20476;-68
2021/01/20 08:07:03;;;;;;;20.05;13.88;;;1.60;68.80;;;;;;5037828;28;19901;-67
2021/01/20 08:09:46;;;;;;;20.85;13.35;;;1.60;68.20;;;;;;5037610;28;20096;-67
2021/01/20 08:12:16;;;;;;;20.83;14.63;;;1.70;68.90;;;;;;5037337;28;20073;-67
2021/01/20 08:14:44;;;;;;;19.83;12.75;;;1.70;69.20;;;;;;5037390;28;20021;-68
2021/01/20 08:17:11;;;;;;;20.92;14.85;;;1.80;67.20;;;;;;5037855;28;20057;-67
2021/01/20 08:19:38;;;;;;;20.83;13.85;;;1.90;67.90;;;;;;5037479;28;20330;-67
2021/01/20 08:22:12;;;;;;;18.85;13.52;;;1.90;68.10;;;;;;5036355;28;20044;-68
2021/01/20 08:24:50;;;;;;;19.50;14.55;;;1.90;66.40;;;;;;5037252;28;20022;-67
2021/01/20 08:27:25;;;;;;;18.85;12.88;;;1.90;67.50;;;;;;5037309;28;20410;-67
2021/01/20 08:29:52;;;;;;;19.38;13.60;;;2.10;66.20;;;;;;5037232;28;20437;-67
2021/01/20 08:32:18;;;;;;;19.30;13.20;;;2.20;66.00;;;;;;5037511;28;20029;-67
2021/01/20 08:34:50;;;;;;;20.95;14.18;;;2.20;65.50;;;;;;5037141;28;20030;-67
2021/01/20 08:37:32;;;;;;;16.58;12.80;;;2.30;65.10;;;;;;5037166;28;20036;-68
2021/01/20 08:39:59;;;;;;;19.80;12.88;;;2.40;65.30;;;;;;5037177;28;20026;-67
2021/01/20 08:42:40;;;;;;;17.13;12.07;;;2.50;65.00;;;;;;5037056;28;20026;-67
2021/01/20 08:45:09;;;;;;;18.40;11.63;;;2.60;64.40;;;;;;5037209;28;20314;-68
2021/01/20 08:48:06;;;;;;;15.20;10.85;;;2.80;62.90;;;;;;5035900;28;20057;-67
2021/01/20 08:50:32;;;;;;;18.92;14.13;;;2.90;63.40;;;;;;5036980;28;20026;-68
2021/01/20 08:53:06;;;;;;;22.27;14.15;;;3.00;65.60;;;;;;5037131;28;20040;-68
2021/01/20 08:55:37;;;;;;;19.10;13.05;;;3.00;65.20;;;;;;5037051;28;20398;-67
2021/01/20 08:58:21;;;;;;;20.55;13.25;;;3.10;63.90;;;;;;5036930;28;20060;-67
2021/01/20 09:00:57;;;;;;;20.95;13.77;;;3.10;64.00;;;;;;5036710;28;20033;-68
2021/01/20 09:03:33;;;;;;;19.30;14.70;;;3.20;63.30;;;;;;5036706;28;20025;-67
2021/01/20 09:06:02;;;;;;;21.08;13.73;;;3.20;62.60;;;;;;5036812;28;20026;-67
2021/01/20 09:08:30;;;;;;;22.60;14.55;;;3.20;62.70;;;;;;5037025;28;20422;-69
2021/01/20 09:10:58;;;;;;;25.55;17.23;;;3.20;64.00;;;;;;5036646;28;20030;-67
2021/01/20 09:13:24;;;;;;;18.25;14.63;;;3.20;62.10;;;;;;5036760;28;20018;-67
2021/01/20 09:15:52;;;;;;;21.67;13.93;;;3.20;62.50;;;;;;5036796;28;20025;-67
2021/01/20 09:18:19;;;;;;;21.08;13.93;;;3.10;62.40;;;;;;5036622;28;20028;-67
2021/01/20 09:20:45;;;;;;;21.48;14.45;;;3.20;61.60;;;;;;5036445;28;20108;-67
2021/01/20 09:23:11;;;;;;;26.10;16.05;;;3.20;62.80;;;;;;5037060;28;20021;-67
2021/01/20 09:25:37;;;;;;;22.02;15.43;;;3.20;65.00;;;;;;5039723;28;20025;-68
2021/01/20 09:28:04;;;;;;;20.27;14.90;;;3.30;64.50;;;;;;5040544;28;20076;-67
2021/01/20 09:30:30;;;;;;;21.38;15.48;;;3.20;64.90;;;;;;5039508;28;20447;-67
2021/01/20 09:32:56;;;;;;;25.67;17.40;;;3.20;66.20;;;;;;5040582;28;20371;-67
2021/01/20 09:35:22;;;;;;;24.40;17.90;;;3.20;67.90;;;;;;5039460;28;20117;-67
2021/01/20 09:37:48;;;;;;;27.40;18.60;;;3.20;67.80;;;;;;5040546;28;20104;-67
2021/01/20 09:40:17;;;;;;;27.65;19.25;;;3.30;66.40;;;;;;5040597;28;20037;-67
2021/01/20 09:42:47;;;;;;;30.77;20.23;;;3.30;66.90;;;;;;5040545;28;20373;-67
2021/01/20 09:45:14;;;;;;;29.88;19.20;;;3.30;67.60;;;;;;5040301;28;20025;-67
2021/01/20 09:47:43;;;;;;;28.50;20.08;;;3.30;67.90;;;;;;5040320;28;20413;-68
2021/01/20 09:50:10;;;;;;;25.83;18.92;;;3.20;68.70;;;;;;5040270;28;20108;-67
2021/01/20 09:52:36;;;;;;;28.33;19.45;;;3.10;67.50;;;;;;5040239;28;20440;-68
2021/01/20 09:55:04;;;;;;;28.88;19.83;;;3.10;67.00;;;;;;5040163;28;20041;-67
2021/01/20 09:57:30;;;;;;;27.80;19.58;;;3.10;68.60;;;;;;5039016;28;20032;-68
2021/01/20 09:59:55;;;;;;;25.80;18.38;;;3.10;69.00;;;;;;5040001;28;20144;-68
2021/01/20 10:02:21;;;;;;;26.02;18.67;;;3.10;67.10;;;;;;5039015;28;20445;-67
2021/01/20 10:04:48;;;;;;;23.42;17.42;;;3.20;66.80;;;;;;5039912;28;20053;-67
2021/01/20 10:07:15;;;;;;;22.40;17.08;;;3.20;67.00;;;;;;5039936;28;20487;-67
2021/01/20 10:09:41;;;;;;;24.55;17.13;;;3.20;65.90;;;;;;5040916;28;20318;-67
2021/01/20 10:12:11;;;;;;;23.25;16.10;;;3.20;64.70;;;;;;5050893;28;20036;-69
2021/01/20 10:14:38;;;;;;;37.67;16.38;;;3.20;65.10;;;;;;5059805;28;20380;-69
2021/01/20 10:17:05;;;;;;;24.25;17.02;;;3.20;65.30;;;;;;5059722;28;20116;-69
2021/01/20 10:19:31;;;;;;;22.85;16.13;;;3.20;63.90;;;;;;5059591;28;20143;-69
2021/01/20 10:21:56;;;;;;;24.35;16.33;;;3.20;68.20;;;;;;5058589;28;20429;-69
2021/01/20 10:24:22;;;;;;;24.25;17.27;;;3.20;66.70;;;;;;5058480;28;20417;-69
2021/01/20 10:26:48;;;;;;;23.50;15.77;;;3.10;66.40;;;;;;5059512;28;20460;-67
2021/01/20 10:29:14;;;;;;;21.25;15.60;;;3.20;67.70;;;;;;5059756;28;20470;-67
2021/01/20 10:31:41;;;;;;;24.73;16.88;;;3.20;68.30;;;;;;5059468;28;20059;-67
2021/01/20 10:34:09;;;;;;;21.90;15.57;;;3.30;67.00;;;;;;5058874;28;20413;-67
2021/01/20 10:36:38;;;;;;;24.70;16.95;;;3.30;65.50;;;;;;5059540;28;20021;-67
2021/01/20 10:39:05;;;;;;;24.67;16.08;;;3.30;66.20;;;;;;5059171;28;20036;-67
2021/01/20 10:41:31;;;;;;;22.73;16.73;;;3.40;66.30;;;;;;5059587;28;20317;-67
2021/01/20 10:43:57;;;;;;;25.60;16.27;;;3.40;66.40;;;;;;5059155;28;20021;-68
2021/01/20 10:46:25;;;;;;;23.88;15.73;;;3.40;65.00;;;;;;5058064;28;20017;-67
2021/01/20 10:48:58;;;;;;;24.20;15.88;;;3.40;63.70;;;;;;5059372;28;20077;-67
2021/01/20 10:51:27;;;;;;;25.80;15.88;;;3.40;64.10;;;;;;5059039;28;20062;-67
2021/01/20 10:53:53;;;;;;;22.10;15.30;;;3.50;63.00;;;;;;5059172;28;20298;-67
2021/01/20 10:56:19;;;;;;;22.77;15.68;;;3.50;61.60;;;;;;5059404;28;20035;-68
2021/01/20 10:58:44;;;;;;;22.08;16.30;;;3.50;61.60;;;;;;5058971;28;20033;-69
2021/01/20 11:01:10;;;;;;;23.17;16.02;;;3.50;63.80;;;;;;5058819;28;20025;-69
2021/01/20 11:03:39;;;;;;;21.02;15.82;;;3.60;64.80;;;;;;5059158;28;20048;-69
2021/01/20 11:06:06;;;;;;;21.02;15.10;;;3.60;65.10;;;;;;5059028;28;20032;-69
2021/01/20 11:08:31;;;;;;;21.58;14.73;;;3.60;63.90;;;;;;5059116;28;20025;-69
2021/01/20 11:10:57;;;;;;;28.00;18.02;;;3.70;64.50;;;;;;5058658;28;20028;-70
2021/01/20 11:13:23;;;;;;;25.25;17.05;;;3.70;64.70;;;;;;5058684;28;20100;-69
2021/01/20 11:15:50;;;;;;;26.00;17.45;;;3.70;63.40;;;;;;5057536;28;20417;-69
2021/01/20 11:18:17;;;;;;;21.33;15.60;;;3.70;63.00;;;;;;5058564;28;20048;-69
2021/01/20 11:20:44;;;;;;;21.83;15.40;;;3.70;62.80;;;;;;5058530;28;20030;-69
2021/01/20 11:23:11;;;;;;;22.20;15.68;;;3.70;65.80;;;;;;5057724;28;20336;-69
2021/01/20 11:25:43;;;;;;;23.58;16.45;;;3.70;65.20;;;;;;5058400;28;20396;-69
2021/01/20 11:28:10;;;;;;;22.88;16.17;;;3.80;64.00;;;;;;5058261;28;20056;-69
2021/01/20 11:30:35;;;;;;;22.38;15.80;;;3.80;63.00;;;;;;5058271;28;20483;-69
2021/01/20 11:33:01;;;;;;;22.48;16.63;;;3.70;64.40;;;;;;5058540;28;20099;-69
2021/01/20 11:35:27;;;;;;;24.27;16.90;;;3.60;64.10;;;;;;5058445;28;20059;-69
2021/01/20 11:37:58;;;;;;;25.25;17.40;;;3.50;64.50;;;;;;5058262;28;20036;-70
2021/01/20 11:40:26;;;;;;;27.83;18.00;;;3.50;65.20;;;;;;5058165;28;20328;-69
2021/01/20 11:42:58;;;;;;;22.05;16.60;;;3.40;64.70;;;;;;5058151;28;20029;-69
2021/01/20 11:45:29;;;;;;;25.20;18.13;;;3.40;62.60;;;;;;5058144;28;20100;-67
2021/01/20 11:47:55;;;;;;;27.40;19.10;;;3.40;64.70;;;;;;5057647;28;20029;-67
2021/01/20 11:50:21;;;;;;;34.80;21.77;;;3.50;66.30;;;;;;5058204;28;20054;-69
2021/01/20 11:52:47;;;;;;;33.83;23.80;;;3.50;65.90;;;;;;5057907;28;20039;-69
2021/01/20 11:55:14;;;;;;;26.42;18.85;;;3.50;66.10;;;;;;5058142;28;20094;-70
2021/01/20 11:57:40;;;;;;;24.30;17.45;;;3.50;65.70;;;;;;5058430;28;20043;-67
2021/01/20 12:00:07;;;;;;;23.58;17.55;;;3.30;65.10;;;;;;5057695;28;20123;-67
2021/01/20 12:02:33;;;;;;;26.30;19.00;;;3.10;66.00;;;;;;5057688;28;20055;-67
2021/01/20 12:05:00;;;;;;;24.38;16.80;;;2.90;66.40;;;;;;5057574;28;20021;-67
2021/01/20 12:07:26;;;;;;;24.52;18.25;;;2.80;66.90;;;;;;5057950;28;20025;-69
2021/01/20 12:09:52;;;;;;;30.25;19.88;;;2.70;67.70;;;;;;5057782;28;20056;-68
2021/01/20 12:12:17;;;;;;;29.90;19.63;;;2.70;67.40;;;;;;5057507;28;20025;-67
2021/01/20 12:14:44;;;;;;;34.85;22.88;;;2.80;66.60;;;;;;5057435;28;20025;-68
2021/01/20 12:17:10;;;;;;;42.03;26.80;;;2.80;66.70;;;;;;5057478;28;20032;-69
2021/01/20 12:19:35;;;;;;;35.28;23.52;;;2.90;67.20;;;;;;5057521;28;20051;-67
2021/01/20 12:22:01;;;;;;;30.45;21.10;;;2.90;66.70;;;;;;5057597;28;20028;-67
2021/01/20 12:24:28;;;;;;;33.10;20.92;;;3.00;66.90;;;;;;5057179;28;20021;-67
2021/01/20 12:26:56;;;;;;;25.38;17.92;;;3.10;65.70;;;;;;5057147;28;20049;-69
2021/01/20 12:29:22;;;;;;;24.83;17.17;;;3.20;65.50;;;;;;5057265;28;20025;-67
2021/01/20 12:31:47;;;;;;;22.55;15.98;;;3.20;63.80;;;;;;5057244;28;20017;-67
2021/01/20 12:34:13;;;;;;;23.98;16.73;;;3.20;63.90;;;;;;5057422;28;20025;-67
2021/01/20 12:36:39;;;;;;;25.63;17.75;;;3.10;63.70;;;;;;5057122;28;20025;-67
2021/01/20 12:39:05;;;;;;;26.85;19.92;;;3.10;63.50;;;;;;5057211;28;20313;-67
2021/01/20 12:41:30;;;;;;;29.02;20.30;;;3.10;64.90;;;;;;5057418;28;20079;-67